PTALB SWBE-SNQX
Flight info
| Callsign | PTALB |
|---|---|
| Flight time | 1h 29m |
| Altitude | 5500 |
| Route | 0414S04028W 0427S04007W 0432S03945W 0444S03914W 0448S03904W |
| Aircraft | C172/L-SFG/C |
Departure
| Time | 2026-04-20 00:25 |
|---|---|
| Airport | Walfrido Salmito de Almeida Airport (SWBE) |
Arrival
| Time | 2026-04-20 01:55 |
|---|---|
| Airport | Quixadá Airport (SNQX) |
| Time | Latitude | Longitude | Altitude | Speed | Heading |
|---|---|---|---|---|---|
| 2026-04-19 23:55 | -4.04355 | -40.88654 | 2875 ft | 0 kts | 123° |
| 2026-04-19 23:57 | -4.04349 | -40.88659 | 2875 ft | 1 kts | 175° |
| 2026-04-19 23:58 | -4.04346 | -40.88655 | 2874 ft | 0 kts | 279° |
| 2026-04-20 00:19 | -4.04324 | -40.88697 | 2869 ft | 13 kts | 330° |
| 2026-04-20 00:20 | -4.04238 | -40.88739 | 2870 ft | 15 kts | 290° |
| 2026-04-20 00:20 | -4.04254 | -40.88853 | 2870 ft | 20 kts | 265° |
| 2026-04-20 00:20 | -4.04262 | -40.89009 | 2870 ft | 25 kts | 264° |
| 2026-04-20 00:20 | -4.04267 | -40.89191 | 2870 ft | 28 kts | 265° |
| 2026-04-20 00:21 | -4.04290 | -40.89400 | 2869 ft | 32 kts | 269° |
| 2026-04-20 00:21 | -4.04302 | -40.89637 | 2867 ft | 36 kts | 268° |
| 2026-04-20 00:21 | -4.04315 | -40.89882 | 2861 ft | 34 kts | 264° |
| 2026-04-20 00:21 | -4.04359 | -40.90028 | 2860 ft | 16 kts | 243° |
| 2026-04-20 00:22 | -4.04324 | -40.90027 | 2859 ft | 7 kts | 66° |
| 2026-04-20 00:22 | -4.04322 | -40.90012 | 2858 ft | 0 kts | 88° |
| 2026-04-20 00:24 | -4.04321 | -40.89990 | 2858 ft | 16 kts | 89° |
| 2026-04-20 00:24 | -4.04307 | -40.89740 | 2863 ft | 54 kts | 86° |
| 2026-04-20 00:24 | -4.04279 | -40.89269 | 2911 ft | 75 kts | 86° |
| 2026-04-20 00:24 | -4.04281 | -40.88756 | 3061 ft | 74 kts | 85° |
| 2026-04-20 00:25 | -4.04264 | -40.88247 | 3213 ft | 72 kts | 86° |
| 2026-04-20 00:25 | -4.04236 | -40.87738 | 3351 ft | 72 kts | 83° |
| 2026-04-20 00:25 | -4.04173 | -40.87208 | 3418 ft | 82 kts | 84° |
| 2026-04-20 00:25 | -4.03864 | -40.86765 | 3534 ft | 86 kts | 26° |
| 2026-04-20 00:26 | -4.03284 | -40.86730 | 3735 ft | 81 kts | 343° |
| 2026-04-20 00:26 | -4.02791 | -40.87106 | 3791 ft | 94 kts | 307° |
| 2026-04-20 00:26 | -4.02685 | -40.87717 | 3900 ft | 93 kts | 256° |
| 2026-04-20 00:26 | -4.03040 | -40.88227 | 3962 ft | 91 kts | 203° |
| 2026-04-20 00:27 | -4.03638 | -40.88390 | 4065 ft | 87 kts | 197° |
| 2026-04-20 00:27 | -4.04154 | -40.88615 | 4169 ft | 86 kts | 197° |
| 2026-04-20 00:27 | -4.04673 | -40.88962 | 4214 ft | 92 kts | 201° |
| 2026-04-20 00:27 | -4.05251 | -40.88904 | 4297 ft | 86 kts | 131° |
| 2026-04-20 00:28 | -4.05450 | -40.88366 | 4450 ft | 76 kts | 92° |
| 2026-04-20 00:28 | -4.05469 | -40.87803 | 4470 ft | 85 kts | 93° |
| 2026-04-20 00:28 | -4.05512 | -40.87255 | 4594 ft | 81 kts | 108° |
| 2026-04-20 00:28 | -4.05839 | -40.86744 | 4606 ft | 89 kts | 120° |
| 2026-04-20 00:29 | -4.06117 | -40.86192 | 4698 ft | 88 kts | 114° |
| 2026-04-20 00:29 | -4.06303 | -40.85628 | 4804 ft | 83 kts | 104° |
| 2026-04-20 00:29 | -4.06362 | -40.85068 | 4909 ft | 80 kts | 95° |
| 2026-04-20 00:29 | -4.06421 | -40.84516 | 5025 ft | 81 kts | 105° |
| 2026-04-20 00:30 | -4.06675 | -40.83983 | 5146 ft | 86 kts | 113° |
| 2026-04-20 00:30 | -4.06928 | -40.83428 | 5273 ft | 89 kts | 112° |
| 2026-04-20 00:30 | -4.07187 | -40.82854 | 5399 ft | 90 kts | 112° |
| 2026-04-20 00:30 | -4.07446 | -40.82276 | 5471 ft | 95 kts | 112° |
| 2026-04-20 00:31 | -4.07730 | -40.81643 | 5478 ft | 103 kts | 112° |
| 2026-04-20 00:31 | -4.08024 | -40.80989 | 5480 ft | 103 kts | 112° |
| 2026-04-20 00:31 | -4.08319 | -40.80329 | 5482 ft | 104 kts | 112° |
| 2026-04-20 00:31 | -4.08620 | -40.79655 | 5484 ft | 106 kts | 112° |
| 2026-04-20 00:32 | -4.08923 | -40.78976 | 5483 ft | 106 kts | 113° |
| 2026-04-20 00:32 | -4.09224 | -40.78304 | 5482 ft | 104 kts | 112° |
| 2026-04-20 00:32 | -4.09516 | -40.77648 | 5480 ft | 103 kts | 112° |
| 2026-04-20 00:32 | -4.09808 | -40.76994 | 5480 ft | 102 kts | 112° |
| 2026-04-20 00:33 | -4.10094 | -40.76354 | 5477 ft | 101 kts | 112° |
| 2026-04-20 00:33 | -4.10378 | -40.75715 | 5477 ft | 101 kts | 112° |
| 2026-04-20 00:33 | -4.10667 | -40.75068 | 5480 ft | 101 kts | 112° |
| 2026-04-20 00:33 | -4.10951 | -40.74433 | 5471 ft | 100 kts | 112° |
| 2026-04-20 00:34 | -4.11236 | -40.73795 | 5476 ft | 101 kts | 112° |
| 2026-04-20 00:34 | -4.11523 | -40.73148 | 5475 ft | 101 kts | 112° |
| 2026-04-20 00:34 | -4.11808 | -40.72511 | 5479 ft | 102 kts | 112° |
| 2026-04-20 00:34 | -4.12099 | -40.71859 | 5471 ft | 101 kts | 113° |
| 2026-04-20 00:35 | -4.12379 | -40.71231 | 5462 ft | 98 kts | 113° |
| 2026-04-20 00:35 | -4.12657 | -40.70608 | 5470 ft | 99 kts | 112° |
| 2026-04-20 00:35 | -4.12942 | -40.69968 | 5473 ft | 101 kts | 113° |
| 2026-04-20 00:35 | -4.13230 | -40.69323 | 5469 ft | 101 kts | 113° |
| 2026-04-20 00:36 | -4.13521 | -40.68671 | 5474 ft | 102 kts | 113° |
| 2026-04-20 00:36 | -4.13809 | -40.68026 | 5476 ft | 103 kts | 113° |
| 2026-04-20 00:36 | -4.14103 | -40.67366 | 5478 ft | 104 kts | 113° |
| 2026-04-20 00:36 | -4.14301 | -40.66923 | 5478 ft | 104 kts | 113° |
| 2026-04-20 00:37 | -4.14694 | -40.66041 | 5477 ft | 103 kts | 113° |
| 2026-04-20 00:37 | -4.14985 | -40.65389 | 5474 ft | 103 kts | 113° |
| 2026-04-20 00:37 | -4.15183 | -40.64945 | 5474 ft | 103 kts | 113° |
| 2026-04-20 00:37 | -4.15473 | -40.64294 | 5472 ft | 102 kts | 113° |
| 2026-04-20 00:38 | -4.15760 | -40.63651 | 5472 ft | 102 kts | 113° |
| 2026-04-20 00:38 | -4.16052 | -40.62997 | 5472 ft | 102 kts | 113° |
| 2026-04-20 00:38 | -4.16341 | -40.62349 | 5471 ft | 102 kts | 113° |
| 2026-04-20 00:38 | -4.16627 | -40.61706 | 5472 ft | 102 kts | 113° |
| 2026-04-20 00:39 | -4.16917 | -40.61056 | 5471 ft | 102 kts | 113° |
| 2026-04-20 00:39 | -4.17206 | -40.60407 | 5468 ft | 101 kts | 113° |
| 2026-04-20 00:39 | -4.17493 | -40.59763 | 5471 ft | 101 kts | 113° |
| 2026-04-20 00:39 | -4.17776 | -40.59129 | 5466 ft | 100 kts | 113° |
| 2026-04-20 00:40 | -4.18064 | -40.58485 | 5465 ft | 100 kts | 113° |
| 2026-04-20 00:40 | -4.18346 | -40.57851 | 5466 ft | 100 kts | 113° |
| 2026-04-20 00:40 | -4.18632 | -40.57210 | 5466 ft | 100 kts | 113° |
| 2026-04-20 00:40 | -4.18917 | -40.56570 | 5467 ft | 100 kts | 113° |
| 2026-04-20 00:41 | -4.19199 | -40.55938 | 5463 ft | 100 kts | 113° |
| 2026-04-20 00:41 | -4.19485 | -40.55297 | 5465 ft | 100 kts | 113° |
| 2026-04-20 00:41 | -4.19769 | -40.54660 | 5466 ft | 100 kts | 113° |
| 2026-04-20 00:41 | -4.20053 | -40.54022 | 5461 ft | 100 kts | 113° |
| 2026-04-20 00:42 | -4.20338 | -40.53382 | 5463 ft | 100 kts | 113° |
| 2026-04-20 00:42 | -4.20621 | -40.52749 | 5461 ft | 101 kts | 113° |
| 2026-04-20 00:42 | -4.20907 | -40.52106 | 5464 ft | 101 kts | 113° |
| 2026-04-20 00:42 | -4.21194 | -40.51463 | 5464 ft | 101 kts | 113° |
| 2026-04-20 00:43 | -4.21480 | -40.50821 | 5463 ft | 101 kts | 113° |
| 2026-04-20 00:43 | -4.21766 | -40.50179 | 5462 ft | 101 kts | 113° |
| 2026-04-20 00:43 | -4.22052 | -40.49538 | 5461 ft | 101 kts | 113° |
| 2026-04-20 00:43 | -4.22340 | -40.48891 | 5461 ft | 102 kts | 113° |
| 2026-04-20 00:44 | -4.22630 | -40.48244 | 5460 ft | 102 kts | 113° |
| 2026-04-20 00:44 | -4.22919 | -40.47595 | 5465 ft | 102 kts | 113° |
| 2026-04-20 00:44 | -4.23203 | -40.46958 | 5463 ft | 102 kts | 113° |
| 2026-04-20 00:44 | -4.23539 | -40.46336 | 5464 ft | 101 kts | 122° |
| 2026-04-20 00:45 | -4.23910 | -40.45740 | 5461 ft | 101 kts | 120° |
| 2026-04-20 00:45 | -4.24280 | -40.45139 | 5457 ft | 101 kts | 120° |
| 2026-04-20 00:45 | -4.24645 | -40.44548 | 5461 ft | 101 kts | 120° |
| 2026-04-20 00:45 | -4.25015 | -40.43949 | 5455 ft | 101 kts | 120° |
| 2026-04-20 00:46 | -4.25388 | -40.43347 | 5456 ft | 101 kts | 120° |
| 2026-04-20 00:46 | -4.25757 | -40.42752 | 5456 ft | 101 kts | 120° |
| 2026-04-20 00:46 | -4.26128 | -40.42152 | 5458 ft | 101 kts | 120° |
| 2026-04-20 00:46 | -4.26497 | -40.41557 | 5461 ft | 101 kts | 120° |
| 2026-04-20 00:47 | -4.26869 | -40.40956 | 5457 ft | 101 kts | 120° |
| 2026-04-20 00:47 | -4.27242 | -40.40354 | 5458 ft | 101 kts | 120° |
| 2026-04-20 00:47 | -4.27613 | -40.39755 | 5457 ft | 101 kts | 120° |
| 2026-04-20 00:47 | -4.27981 | -40.39160 | 5453 ft | 100 kts | 120° |
| 2026-04-20 00:48 | -4.28348 | -40.38568 | 5453 ft | 101 kts | 120° |
| 2026-04-20 00:48 | -4.28720 | -40.37967 | 5455 ft | 101 kts | 120° |
| 2026-04-20 00:48 | -4.29091 | -40.37368 | 5456 ft | 102 kts | 120° |
| 2026-04-20 00:48 | -4.29464 | -40.36765 | 5457 ft | 102 kts | 120° |
| 2026-04-20 00:49 | -4.29838 | -40.36160 | 5456 ft | 102 kts | 120° |
| 2026-04-20 00:49 | -4.30211 | -40.35560 | 5455 ft | 102 kts | 120° |
| 2026-04-20 00:49 | -4.30580 | -40.34963 | 5454 ft | 101 kts | 120° |
| 2026-04-20 00:49 | -4.30957 | -40.34354 | 5455 ft | 102 kts | 120° |
| 2026-04-20 00:50 | -4.31329 | -40.33754 | 5457 ft | 102 kts | 120° |
| 2026-04-20 00:50 | -4.31705 | -40.33146 | 5459 ft | 103 kts | 120° |
| 2026-04-20 00:50 | -4.32077 | -40.32544 | 5459 ft | 102 kts | 120° |
| 2026-04-20 00:50 | -4.32457 | -40.31931 | 5455 ft | 102 kts | 120° |
| 2026-04-20 00:51 | -4.32827 | -40.31333 | 5453 ft | 102 kts | 120° |
| 2026-04-20 00:51 | -4.33201 | -40.30730 | 5454 ft | 101 kts | 120° |
| 2026-04-20 00:51 | -4.33574 | -40.30127 | 5455 ft | 101 kts | 120° |
| 2026-04-20 00:51 | -4.33946 | -40.29526 | 5455 ft | 101 kts | 120° |
| 2026-04-20 00:52 | -4.34318 | -40.28925 | 5460 ft | 101 kts | 120° |
| 2026-04-20 00:52 | -4.34689 | -40.28327 | 5457 ft | 101 kts | 120° |
| 2026-04-20 00:52 | -4.35062 | -40.27723 | 5459 ft | 101 kts | 120° |
| 2026-04-20 00:52 | -4.35433 | -40.27124 | 5455 ft | 101 kts | 120° |
| 2026-04-20 00:53 | -4.35801 | -40.26530 | 5456 ft | 101 kts | 120° |
| 2026-04-20 00:53 | -4.36168 | -40.25937 | 5454 ft | 101 kts | 120° |
| 2026-04-20 00:53 | -4.36541 | -40.25334 | 5454 ft | 101 kts | 120° |
| 2026-04-20 00:53 | -4.36913 | -40.24734 | 5458 ft | 101 kts | 120° |
| 2026-04-20 00:54 | -4.37280 | -40.24140 | 5458 ft | 101 kts | 120° |
| 2026-04-20 00:54 | -4.37652 | -40.23539 | 5458 ft | 101 kts | 120° |
| 2026-04-20 00:54 | -4.38023 | -40.22940 | 5458 ft | 101 kts | 120° |
| 2026-04-20 00:54 | -4.38391 | -40.22345 | 5456 ft | 101 kts | 120° |
| 2026-04-20 00:55 | -4.38763 | -40.21744 | 5454 ft | 101 kts | 120° |
| 2026-04-20 00:55 | -4.39134 | -40.21144 | 5461 ft | 101 kts | 120° |
| 2026-04-20 00:55 | -4.39502 | -40.20551 | 5458 ft | 101 kts | 120° |
| 2026-04-20 00:55 | -4.39874 | -40.19949 | 5458 ft | 101 kts | 120° |
| 2026-04-20 00:56 | -4.40244 | -40.19350 | 5457 ft | 101 kts | 120° |
| 2026-04-20 00:56 | -4.40612 | -40.18755 | 5458 ft | 101 kts | 120° |
| 2026-04-20 00:56 | -4.40984 | -40.18154 | 5459 ft | 101 kts | 120° |
| 2026-04-20 00:56 | -4.41351 | -40.17562 | 5457 ft | 100 kts | 121° |
| 2026-04-20 00:57 | -4.41721 | -40.16963 | 5459 ft | 101 kts | 120° |
| 2026-04-20 00:57 | -4.42092 | -40.16364 | 5460 ft | 102 kts | 120° |
| 2026-04-20 00:57 | -4.42468 | -40.15757 | 5465 ft | 102 kts | 120° |
| 2026-04-20 00:57 | -4.42838 | -40.15159 | 5462 ft | 102 kts | 120° |
| 2026-04-20 00:58 | -4.43213 | -40.14552 | 5459 ft | 102 kts | 120° |
| 2026-04-20 00:58 | -4.43582 | -40.13956 | 5464 ft | 102 kts | 120° |
| 2026-04-20 00:58 | -4.43959 | -40.13347 | 5465 ft | 102 kts | 120° |
| 2026-04-20 00:58 | -4.44330 | -40.12746 | 5462 ft | 101 kts | 121° |
| 2026-04-20 00:59 | -4.44698 | -40.12153 | 5462 ft | 101 kts | 121° |
| 2026-04-20 00:59 | -4.45035 | -40.11540 | 5464 ft | 99 kts | 107° |
| 2026-04-20 00:59 | -4.45180 | -40.10869 | 5466 ft | 99 kts | 103° |
| 2026-04-20 00:59 | -4.45335 | -40.10188 | 5464 ft | 100 kts | 103° |
| 2026-04-20 01:00 | -4.45490 | -40.09507 | 5463 ft | 101 kts | 103° |
| 2026-04-20 01:00 | -4.45647 | -40.08813 | 5465 ft | 102 kts | 103° |
| 2026-04-20 01:00 | -4.45804 | -40.08124 | 5466 ft | 102 kts | 103° |
| 2026-04-20 01:00 | -4.45962 | -40.07432 | 5468 ft | 102 kts | 103° |
| 2026-04-20 01:01 | -4.46119 | -40.06739 | 5468 ft | 101 kts | 103° |
| 2026-04-20 01:01 | -4.46275 | -40.06053 | 5468 ft | 101 kts | 103° |
| 2026-04-20 01:01 | -4.46431 | -40.05367 | 5469 ft | 101 kts | 103° |
| 2026-04-20 01:01 | -4.46590 | -40.04670 | 5469 ft | 101 kts | 103° |
| 2026-04-20 01:02 | -4.46745 | -40.03987 | 5466 ft | 101 kts | 103° |
| 2026-04-20 01:02 | -4.46902 | -40.03297 | 5466 ft | 101 kts | 103° |
| 2026-04-20 01:02 | -4.47058 | -40.02609 | 5470 ft | 101 kts | 103° |
| 2026-04-20 01:02 | -4.47215 | -40.01920 | 5466 ft | 100 kts | 103° |
| 2026-04-20 01:03 | -4.47370 | -40.01237 | 5468 ft | 100 kts | 103° |
| 2026-04-20 01:03 | -4.47526 | -40.00555 | 5471 ft | 100 kts | 103° |
| 2026-04-20 01:03 | -4.47681 | -39.99873 | 5469 ft | 100 kts | 103° |
| 2026-04-20 01:03 | -4.47835 | -39.99196 | 5474 ft | 100 kts | 103° |
| 2026-04-20 01:04 | -4.47990 | -39.98511 | 5473 ft | 100 kts | 103° |
| 2026-04-20 01:04 | -4.48146 | -39.97827 | 5472 ft | 100 kts | 103° |
| 2026-04-20 01:04 | -4.48301 | -39.97142 | 5473 ft | 100 kts | 103° |
| 2026-04-20 01:04 | -4.48457 | -39.96460 | 5476 ft | 100 kts | 103° |
| 2026-04-20 01:05 | -4.48612 | -39.95777 | 5475 ft | 100 kts | 103° |
| 2026-04-20 01:05 | -4.48765 | -39.95101 | 5475 ft | 101 kts | 103° |
| 2026-04-20 01:05 | -4.48922 | -39.94413 | 5475 ft | 100 kts | 103° |
| 2026-04-20 01:05 | -4.49076 | -39.93735 | 5476 ft | 100 kts | 103° |
| 2026-04-20 01:06 | -4.49231 | -39.93053 | 5472 ft | 100 kts | 103° |
| 2026-04-20 01:06 | -4.49383 | -39.92383 | 5474 ft | 100 kts | 103° |
| 2026-04-20 01:06 | -4.49538 | -39.91702 | 5476 ft | 100 kts | 103° |
| 2026-04-20 01:06 | -4.49693 | -39.91021 | 5472 ft | 100 kts | 103° |
| 2026-04-20 01:07 | -4.49847 | -39.90340 | 5470 ft | 100 kts | 103° |
| 2026-04-20 01:07 | -4.50001 | -39.89666 | 5471 ft | 99 kts | 103° |
| 2026-04-20 01:07 | -4.50153 | -39.88993 | 5471 ft | 99 kts | 103° |
| 2026-04-20 01:07 | -4.50308 | -39.88312 | 5474 ft | 100 kts | 103° |
| 2026-04-20 01:08 | -4.50463 | -39.87632 | 5474 ft | 100 kts | 103° |
| 2026-04-20 01:08 | -4.50564 | -39.87184 | 5474 ft | 99 kts | 103° |
| 2026-04-20 01:08 | -4.50770 | -39.86279 | 5471 ft | 99 kts | 103° |
| 2026-04-20 01:08 | -4.50920 | -39.85620 | 5472 ft | 96 kts | 103° |
| 2026-04-20 01:09 | -4.51020 | -39.85180 | 5470 ft | 96 kts | 102° |
| 2026-04-20 01:09 | -4.51170 | -39.84520 | 5477 ft | 98 kts | 103° |
| 2026-04-20 01:09 | -4.51321 | -39.83852 | 5477 ft | 100 kts | 103° |
| 2026-04-20 01:09 | -4.51477 | -39.83169 | 5477 ft | 101 kts | 103° |
| 2026-04-20 01:10 | -4.51633 | -39.82481 | 5481 ft | 102 kts | 103° |
| 2026-04-20 01:10 | -4.51945 | -39.81107 | 5480 ft | 100 kts | 103° |
| 2026-04-20 01:10 | -4.52100 | -39.80421 | 5473 ft | 99 kts | 103° |
| 2026-04-20 01:11 | -4.52252 | -39.79757 | 5468 ft | 96 kts | 103° |
| 2026-04-20 01:11 | -4.52396 | -39.79117 | 5474 ft | 95 kts | 103° |
| 2026-04-20 01:11 | -4.52543 | -39.78476 | 5472 ft | 94 kts | 103° |
| 2026-04-20 01:11 | -4.52688 | -39.77830 | 5475 ft | 96 kts | 103° |
| 2026-04-20 01:12 | -4.52841 | -39.77161 | 5475 ft | 99 kts | 103° |
| 2026-04-20 01:12 | -4.52991 | -39.76498 | 5477 ft | 96 kts | 103° |
| 2026-04-20 01:12 | -4.53144 | -39.75827 | 5481 ft | 100 kts | 103° |
| 2026-04-20 01:12 | -4.53297 | -39.75152 | 5484 ft | 101 kts | 103° |
| 2026-04-20 01:13 | -4.53534 | -39.74482 | 5481 ft | 102 kts | 111° |
| 2026-04-20 01:13 | -4.53794 | -39.73810 | 5490 ft | 105 kts | 111° |
| 2026-04-20 01:13 | -4.54060 | -39.73124 | 5484 ft | 104 kts | 111° |
| 2026-04-20 01:13 | -4.54323 | -39.72442 | 5488 ft | 105 kts | 111° |
| 2026-04-20 01:14 | -4.54588 | -39.71759 | 5485 ft | 105 kts | 111° |
| 2026-04-20 01:14 | -4.54847 | -39.71091 | 5489 ft | 104 kts | 111° |
| 2026-04-20 01:14 | -4.55110 | -39.70410 | 5487 ft | 104 kts | 111° |
| 2026-04-20 01:14 | -4.55372 | -39.69736 | 5483 ft | 103 kts | 111° |
| 2026-04-20 01:15 | -4.55631 | -39.69066 | 5478 ft | 102 kts | 111° |
| 2026-04-20 01:15 | -4.55883 | -39.68416 | 5479 ft | 101 kts | 111° |
| 2026-04-20 01:15 | -4.56140 | -39.67753 | 5481 ft | 103 kts | 111° |
| 2026-04-20 01:15 | -4.56401 | -39.67080 | 5479 ft | 103 kts | 111° |
| 2026-04-20 01:16 | -4.56658 | -39.66415 | 5480 ft | 103 kts | 111° |
| 2026-04-20 01:16 | -4.56918 | -39.65746 | 5482 ft | 102 kts | 111° |
| 2026-04-20 01:16 | -4.57174 | -39.65085 | 5484 ft | 102 kts | 111° |
| 2026-04-20 01:16 | -4.57433 | -39.64415 | 5483 ft | 102 kts | 111° |
| 2026-04-20 01:17 | -4.57686 | -39.63763 | 5482 ft | 101 kts | 111° |
| 2026-04-20 01:17 | -4.57943 | -39.63099 | 5481 ft | 101 kts | 111° |
| 2026-04-20 01:17 | -4.58197 | -39.62441 | 5483 ft | 101 kts | 111° |
| 2026-04-20 01:17 | -4.58451 | -39.61786 | 5481 ft | 102 kts | 111° |
| 2026-04-20 01:18 | -4.58710 | -39.61119 | 5477 ft | 102 kts | 111° |
| 2026-04-20 01:18 | -4.58968 | -39.60453 | 5479 ft | 102 kts | 111° |
| 2026-04-20 01:18 | -4.59225 | -39.59790 | 5477 ft | 101 kts | 111° |
| 2026-04-20 01:18 | -4.59476 | -39.59140 | 5476 ft | 101 kts | 111° |
| 2026-04-20 01:19 | -4.59728 | -39.58487 | 5477 ft | 101 kts | 111° |
| 2026-04-20 01:19 | -4.59983 | -39.57831 | 5478 ft | 101 kts | 111° |
| 2026-04-20 01:19 | -4.60241 | -39.57165 | 5480 ft | 102 kts | 111° |
| 2026-04-20 01:19 | -4.60499 | -39.56500 | 5480 ft | 103 kts | 111° |
| 2026-04-20 01:20 | -4.60756 | -39.55834 | 5478 ft | 102 kts | 111° |
| 2026-04-20 01:20 | -4.61013 | -39.55172 | 5479 ft | 102 kts | 111° |
| 2026-04-20 01:20 | -4.61269 | -39.54511 | 5478 ft | 102 kts | 111° |
| 2026-04-20 01:20 | -4.61524 | -39.53851 | 5477 ft | 101 kts | 111° |
| 2026-04-20 01:21 | -4.61780 | -39.53191 | 5476 ft | 101 kts | 111° |
| 2026-04-20 01:21 | -4.62031 | -39.52543 | 5478 ft | 101 kts | 111° |
| 2026-04-20 01:21 | -4.62287 | -39.51882 | 5473 ft | 101 kts | 111° |
| 2026-04-20 01:21 | -4.62537 | -39.51235 | 5477 ft | 101 kts | 111° |
| 2026-04-20 01:22 | -4.62791 | -39.50578 | 5476 ft | 101 kts | 111° |
| 2026-04-20 01:22 | -4.63045 | -39.49922 | 5475 ft | 100 kts | 111° |
| 2026-04-20 01:22 | -4.63295 | -39.49277 | 5473 ft | 98 kts | 111° |
| 2026-04-20 01:22 | -4.63542 | -39.48639 | 5469 ft | 99 kts | 111° |
| 2026-04-20 01:23 | -4.63791 | -39.47996 | 5472 ft | 100 kts | 111° |
| 2026-04-20 01:23 | -4.64042 | -39.47347 | 5471 ft | 100 kts | 111° |
| 2026-04-20 01:23 | -4.64294 | -39.46697 | 5473 ft | 100 kts | 111° |
| 2026-04-20 01:23 | -4.64544 | -39.46050 | 5471 ft | 99 kts | 111° |
| 2026-04-20 01:24 | -4.64798 | -39.45394 | 5472 ft | 100 kts | 111° |
| 2026-04-20 01:24 | -4.65046 | -39.44752 | 5474 ft | 100 kts | 111° |
| 2026-04-20 01:24 | -4.65300 | -39.44097 | 5472 ft | 100 kts | 111° |
| 2026-04-20 01:24 | -4.65552 | -39.43445 | 5473 ft | 100 kts | 111° |
| 2026-04-20 01:25 | -4.65802 | -39.42798 | 5469 ft | 100 kts | 111° |
| 2026-04-20 01:25 | -4.66052 | -39.42155 | 5474 ft | 99 kts | 111° |
| 2026-04-20 01:25 | -4.66305 | -39.41499 | 5472 ft | 100 kts | 111° |
| 2026-04-20 01:25 | -4.66558 | -39.40846 | 5468 ft | 101 kts | 111° |
| 2026-04-20 01:26 | -4.66810 | -39.40193 | 5474 ft | 100 kts | 111° |
| 2026-04-20 01:26 | -4.67062 | -39.39543 | 5473 ft | 100 kts | 111° |
| 2026-04-20 01:26 | -4.67314 | -39.38892 | 5471 ft | 100 kts | 111° |
| 2026-04-20 01:26 | -4.67567 | -39.38238 | 5472 ft | 101 kts | 111° |
| 2026-04-20 01:27 | -4.67821 | -39.37581 | 5468 ft | 100 kts | 112° |
| 2026-04-20 01:27 | -4.68072 | -39.36932 | 5471 ft | 100 kts | 111° |
| 2026-04-20 01:27 | -4.68323 | -39.36284 | 5471 ft | 101 kts | 111° |
| 2026-04-20 01:27 | -4.68580 | -39.35620 | 5469 ft | 101 kts | 111° |
| 2026-04-20 01:28 | -4.68833 | -39.34965 | 5470 ft | 101 kts | 111° |
| 2026-04-20 01:28 | -4.69088 | -39.34308 | 5471 ft | 101 kts | 111° |
| 2026-04-20 01:28 | -4.69340 | -39.33656 | 5469 ft | 100 kts | 111° |
| 2026-04-20 01:28 | -4.69593 | -39.33000 | 5471 ft | 100 kts | 111° |
| 2026-04-20 01:29 | -4.69847 | -39.32344 | 5469 ft | 100 kts | 111° |
| 2026-04-20 01:29 | -4.70096 | -39.31701 | 5470 ft | 99 kts | 111° |
| 2026-04-20 01:29 | -4.70344 | -39.31059 | 5469 ft | 99 kts | 111° |
| 2026-04-20 01:29 | -4.70596 | -39.30407 | 5465 ft | 99 kts | 111° |
| 2026-04-20 01:30 | -4.70847 | -39.29760 | 5465 ft | 99 kts | 111° |
| 2026-04-20 01:30 | -4.71095 | -39.29118 | 5464 ft | 99 kts | 111° |
| 2026-04-20 01:30 | -4.71343 | -39.28476 | 5465 ft | 99 kts | 111° |
| 2026-04-20 01:30 | -4.71592 | -39.27832 | 5465 ft | 100 kts | 111° |
| 2026-04-20 01:31 | -4.71828 | -39.27222 | 5466 ft | 100 kts | 111° |
| 2026-04-20 01:31 | -4.72079 | -39.26572 | 5465 ft | 99 kts | 111° |
| 2026-04-20 01:31 | -4.72327 | -39.25932 | 5464 ft | 99 kts | 111° |
| 2026-04-20 01:31 | -4.72573 | -39.25295 | 5462 ft | 98 kts | 111° |
| 2026-04-20 01:32 | -4.72824 | -39.24647 | 5467 ft | 100 kts | 111° |
| 2026-04-20 01:32 | -4.73075 | -39.23996 | 5454 ft | 98 kts | 113° |
| 2026-04-20 01:32 | -4.73319 | -39.23368 | 5461 ft | 98 kts | 111° |
| 2026-04-20 01:32 | -4.73571 | -39.22731 | 5465 ft | 99 kts | 112° |
| 2026-04-20 01:33 | -4.73831 | -39.22081 | 5465 ft | 100 kts | 112° |
| 2026-04-20 01:33 | -4.74091 | -39.21434 | 5466 ft | 100 kts | 112° |
| 2026-04-20 01:33 | -4.74351 | -39.20786 | 5468 ft | 100 kts | 112° |
| 2026-04-20 01:33 | -4.74608 | -39.20144 | 5465 ft | 100 kts | 112° |
| 2026-04-20 01:34 | -4.74868 | -39.19493 | 5463 ft | 99 kts | 112° |
| 2026-04-20 01:34 | -4.75124 | -39.18855 | 5463 ft | 99 kts | 112° |
| 2026-04-20 01:34 | -4.75379 | -39.18217 | 5463 ft | 99 kts | 112° |
| 2026-04-20 01:34 | -4.75634 | -39.17578 | 5462 ft | 98 kts | 112° |
| 2026-04-20 01:35 | -4.75889 | -39.16942 | 5465 ft | 97 kts | 111° |
| 2026-04-20 01:35 | -4.76137 | -39.16322 | 5460 ft | 96 kts | 112° |
| 2026-04-20 01:35 | -4.76387 | -39.15695 | 5464 ft | 98 kts | 112° |
| 2026-04-20 01:35 | -4.76648 | -39.15044 | 5462 ft | 99 kts | 111° |
| 2026-04-20 01:36 | -4.76901 | -39.14410 | 5463 ft | 99 kts | 112° |
| 2026-04-20 01:36 | -4.77159 | -39.13768 | 5460 ft | 100 kts | 112° |
| 2026-04-20 01:36 | -4.77418 | -39.13119 | 5459 ft | 99 kts | 112° |
| 2026-04-20 01:36 | -4.77676 | -39.12474 | 5458 ft | 97 kts | 112° |
| 2026-04-20 01:37 | -4.77913 | -39.11885 | 5466 ft | 91 kts | 111° |
| 2026-04-20 01:37 | -4.78155 | -39.11276 | 5463 ft | 95 kts | 111° |
| 2026-04-20 01:37 | -4.78319 | -39.10864 | 5464 ft | 96 kts | 111° |
| 2026-04-20 01:37 | -4.78570 | -39.10237 | 5463 ft | 98 kts | 112° |
| 2026-04-20 01:38 | -4.78823 | -39.09606 | 5464 ft | 98 kts | 112° |
| 2026-04-20 01:38 | -4.79078 | -39.08969 | 5465 ft | 98 kts | 112° |
| 2026-04-20 01:38 | -4.79333 | -39.08329 | 5465 ft | 99 kts | 112° |
| 2026-04-20 01:38 | -4.79591 | -39.07686 | 5464 ft | 98 kts | 112° |
| 2026-04-20 01:39 | -4.79846 | -39.07049 | 5466 ft | 99 kts | 112° |
| 2026-04-20 01:39 | -4.80276 | -39.06541 | 5458 ft | 95 kts | 148° |
| 2026-04-20 01:39 | -4.80867 | -39.06287 | 5376 ft | 91 kts | 151° |
| 2026-04-20 01:39 | -4.81449 | -39.06029 | 5249 ft | 92 kts | 152° |
| 2026-04-20 01:40 | -4.82037 | -39.05769 | 5133 ft | 94 kts | 152° |
| 2026-04-20 01:40 | -4.82649 | -39.05498 | 5014 ft | 96 kts | 152° |
| 2026-04-20 01:40 | -4.83266 | -39.05227 | 4898 ft | 98 kts | 152° |
| 2026-04-20 01:40 | -4.83891 | -39.04951 | 4784 ft | 99 kts | 152° |
| 2026-04-20 01:41 | -4.84531 | -39.04668 | 4664 ft | 100 kts | 152° |
| 2026-04-20 01:41 | -4.85165 | -39.04389 | 4542 ft | 101 kts | 152° |
| 2026-04-20 01:41 | -4.85815 | -39.04103 | 4418 ft | 102 kts | 153° |
| 2026-04-20 01:41 | -4.86464 | -39.03817 | 4298 ft | 101 kts | 153° |
| 2026-04-20 01:42 | -4.87098 | -39.03538 | 4174 ft | 99 kts | 153° |
| 2026-04-20 01:42 | -4.87732 | -39.03258 | 4050 ft | 98 kts | 153° |
| 2026-04-20 01:42 | -4.88363 | -39.02980 | 3900 ft | 100 kts | 153° |
| 2026-04-20 01:42 | -4.89005 | -39.02697 | 3752 ft | 101 kts | 154° |
| 2026-04-20 01:43 | -4.89650 | -39.02412 | 3613 ft | 102 kts | 154° |
| 2026-04-20 01:43 | -4.90304 | -39.02124 | 3471 ft | 103 kts | 154° |
| 2026-04-20 01:43 | -4.90966 | -39.01832 | 3329 ft | 104 kts | 154° |
| 2026-04-20 01:43 | -4.91622 | -39.01543 | 3188 ft | 105 kts | 155° |
| 2026-04-20 01:44 | -4.92297 | -39.01245 | 3043 ft | 105 kts | 155° |
| 2026-04-20 01:44 | -4.92968 | -39.00949 | 2894 ft | 106 kts | 155° |
| 2026-04-20 01:44 | -4.93648 | -39.00649 | 2753 ft | 107 kts | 155° |
| 2026-04-20 01:44 | -4.94325 | -39.00351 | 2610 ft | 107 kts | 156° |
| 2026-04-20 01:45 | -4.95021 | -39.00067 | 2461 ft | 108 kts | 157° |
| 2026-04-20 01:45 | -4.95716 | -38.99784 | 2319 ft | 108 kts | 157° |
| 2026-04-20 01:45 | -4.96423 | -38.99494 | 2170 ft | 109 kts | 157° |
| 2026-04-20 01:45 | -4.97123 | -38.99208 | 2030 ft | 109 kts | 157° |
| 2026-04-20 01:46 | -4.97831 | -38.98918 | 1885 ft | 110 kts | 157° |
| 2026-04-20 01:46 | -4.98538 | -38.98627 | 1744 ft | 111 kts | 157° |
| 2026-04-20 01:46 | -4.99241 | -38.98322 | 1656 ft | 104 kts | 145° |
| 2026-04-20 01:46 | -4.99421 | -38.97723 | 1648 ft | 92 kts | 71° |
| 2026-04-20 01:47 | -4.99186 | -38.97152 | 1639 ft | 86 kts | 39° |
| 2026-04-20 01:47 | -4.98730 | -38.96788 | 1643 ft | 83 kts | 38° |
| 2026-04-20 01:47 | -4.98215 | -38.96536 | 1640 ft | 82 kts | 19° |
| 2026-04-20 01:47 | -4.97682 | -38.96519 | 1644 ft | 82 kts | 317° |
| 2026-04-20 01:48 | -4.97411 | -38.97024 | 1644 ft | 83 kts | 301° |
| 2026-04-20 01:48 | -4.97119 | -38.97550 | 1662 ft | 89 kts | 300° |
| 2026-04-20 01:48 | -4.96815 | -38.98109 | 1663 ft | 93 kts | 300° |
| 2026-04-20 01:48 | -4.96494 | -38.98695 | 1663 ft | 97 kts | 300° |
| 2026-04-20 01:49 | -4.96166 | -38.99297 | 1668 ft | 98 kts | 300° |
| 2026-04-20 01:49 | -4.95841 | -38.99892 | 1664 ft | 96 kts | 300° |
| 2026-04-20 01:49 | -4.95843 | -39.00510 | 1644 ft | 96 kts | 227° |
| 2026-04-20 01:49 | -4.96385 | -39.00891 | 1649 ft | 96 kts | 217° |
| 2026-04-20 01:50 | -4.96937 | -39.01279 | 1658 ft | 97 kts | 213° |
| 2026-04-20 01:50 | -4.97544 | -39.01591 | 1656 ft | 97 kts | 207° |
| 2026-04-20 01:50 | -4.98175 | -39.01603 | 1646 ft | 96 kts | 143° |
| 2026-04-20 01:50 | -4.98582 | -39.01086 | 1649 ft | 95 kts | 119° |
| 2026-04-20 01:51 | -4.98938 | -39.00517 | 1649 ft | 96 kts | 120° |
| 2026-04-20 01:51 | -4.99292 | -38.99946 | 1654 ft | 97 kts | 120° |
| 2026-04-20 01:51 | -4.99615 | -38.99360 | 1655 ft | 97 kts | 116° |
| 2026-04-20 01:51 | -4.99937 | -38.98758 | 1660 ft | 96 kts | 116° |
| 2026-04-20 01:52 | -5.00246 | -38.98181 | 1662 ft | 92 kts | 116° |
| 2026-04-20 01:52 | -5.00546 | -38.97619 | 1658 ft | 91 kts | 116° |
| 2026-04-20 01:52 | -5.00842 | -38.97066 | 1657 ft | 89 kts | 116° |
| 2026-04-20 01:52 | -5.00958 | -38.96498 | 1644 ft | 84 kts | 57° |
| 2026-04-20 01:53 | -5.00472 | -38.96254 | 1647 ft | 80 kts | 27° |
| 2026-04-20 01:53 | -4.99959 | -38.96042 | 1594 ft | 84 kts | 359° |
| 2026-04-20 01:53 | -4.99431 | -38.96250 | 1590 ft | 77 kts | 332° |
| 2026-04-20 01:53 | -4.98957 | -38.96586 | 1459 ft | 78 kts | 317° |
| 2026-04-20 01:54 | -4.98601 | -38.96982 | 1288 ft | 82 kts | 307° |
| 2026-04-20 01:54 | -4.98315 | -38.97505 | 1045 ft | 86 kts | 291° |
| 2026-04-20 01:54 | -4.98132 | -38.98054 | 830 ft | 80 kts | 289° |
| 2026-04-20 01:54 | -4.97973 | -38.98534 | 730 ft | 63 kts | 289° |
| 2026-04-20 01:55 | -4.97867 | -38.98886 | 729 ft | 39 kts | 288° |
| 2026-04-20 01:55 | -4.97812 | -38.99021 | 729 ft | 14 kts | 312° |
| 2026-04-20 01:55 | -4.97807 | -38.99040 | 729 ft | 5 kts | 225° |
| 2026-04-20 01:55 | -4.97824 | -38.99022 | 729 ft | 7 kts | 98° |
| 2026-04-20 01:56 | -4.97851 | -38.98970 | 729 ft | 10 kts | 173° |
| 2026-04-20 01:56 | -4.97895 | -38.98980 | 729 ft | 0 kts | 195° |
| 2026-04-20 01:57 | -4.97903 | -38.98981 | 732 ft | 4 kts | 187° |
| 2026-04-20 01:57 | -4.97929 | -38.98955 | 729 ft | 8 kts | 105° |
| 2026-04-20 01:57 | -4.97972 | -38.98943 | 730 ft | 10 kts | 262° |
| 2026-04-20 01:58 | -4.97956 | -38.98966 | 730 ft | 0 kts | 278° |